HOOKER5 KRDU-KILM
Flight info
| Callsign | HOOKER5 |
|---|---|
| Flight time | 0h 44m |
| Altitude | VFR/035 |
| Route | VFR E |
| Aircraft | H47/M-VGD/C |
Departure
| Time | 2026-05-07 00:04 |
|---|---|
| Airport | Raleigh-Durham International Airport (KRDU) |
Arrival
| Time | 2026-05-07 00:49 |
|---|---|
| Airport | Wilmington International Airport (KILM) |
| Time | Latitude | Longitude | Altitude | Speed | Heading |
|---|---|---|---|---|---|
| 2026-05-07 00:04 | 35.81364 | -78.75330 | 910 ft | 154 kts | 154° |
| 2026-05-07 00:04 | 35.80547 | -78.74482 | 1031 ft | 154 kts | 145° |
| 2026-05-07 00:04 | 35.79718 | -78.73617 | 1120 ft | 158 kts | 158° |
| 2026-05-07 00:04 | 35.78811 | -78.72813 | 1196 ft | 161 kts | 152° |
| 2026-05-07 00:05 | 35.77963 | -78.71888 | 1086 ft | 171 kts | 146° |
| 2026-05-07 00:05 | 35.77156 | -78.70796 | 1033 ft | 168 kts | 138° |
| 2026-05-07 00:05 | 35.76513 | -78.69684 | 1089 ft | 155 kts | 135° |
| 2026-05-07 00:05 | 35.75934 | -78.68621 | 1226 ft | 146 kts | 137° |
| 2026-05-07 00:06 | 35.75120 | -78.67929 | 1267 ft | 141 kts | 166° |
| 2026-05-07 00:06 | 35.74229 | -78.67423 | 1380 ft | 141 kts | 167° |
| 2026-05-07 00:06 | 35.73313 | -78.66890 | 1340 ft | 149 kts | 166° |
| 2026-05-07 00:06 | 35.72424 | -78.66270 | 1476 ft | 142 kts | 160° |
| 2026-05-07 00:07 | 35.71608 | -78.65578 | 1522 ft | 145 kts | 158° |
| 2026-05-07 00:07 | 35.70810 | -78.64774 | 1481 ft | 149 kts | 154° |
| 2026-05-07 00:07 | 35.70065 | -78.63884 | 1475 ft | 154 kts | 148° |
| 2026-05-07 00:07 | 35.69356 | -78.62857 | 1444 ft | 160 kts | 139° |
| 2026-05-07 00:08 | 35.68746 | -78.61710 | 1520 ft | 158 kts | 133° |
| 2026-05-07 00:08 | 35.68238 | -78.60547 | 1734 ft | 153 kts | 131° |
| 2026-05-07 00:08 | 35.67620 | -78.59502 | 1825 ft | 154 kts | 144° |
| 2026-05-07 00:08 | 35.66938 | -78.58443 | 1737 ft | 167 kts | 140° |
| 2026-05-07 00:09 | 35.66268 | -78.57259 | 1726 ft | 172 kts | 135° |
| 2026-05-07 00:09 | 35.65676 | -78.55997 | 1800 ft | 167 kts | 136° |
| 2026-05-07 00:09 | 35.64848 | -78.55012 | 1817 ft | 164 kts | 150° |
| 2026-05-07 00:09 | 35.64050 | -78.54037 | 1902 ft | 165 kts | 147° |
| 2026-05-07 00:10 | 35.63267 | -78.53013 | 1998 ft | 162 kts | 145° |
| 2026-05-07 00:10 | 35.62537 | -78.52001 | 2182 ft | 157 kts | 144° |
| 2026-05-07 00:10 | 35.61802 | -78.50968 | 2174 ft | 165 kts | 144° |
| 2026-05-07 00:10 | 35.61085 | -78.49929 | 2389 ft | 158 kts | 142° |
| 2026-05-07 00:11 | 35.60395 | -78.48883 | 2479 ft | 161 kts | 142° |
| 2026-05-07 00:11 | 35.59663 | -78.47815 | 2434 ft | 166 kts | 144° |
| 2026-05-07 00:11 | 35.58842 | -78.46765 | 2280 ft | 171 kts | 149° |
| 2026-05-07 00:11 | 35.58053 | -78.45775 | 2459 ft | 161 kts | 148° |
| 2026-05-07 00:12 | 35.57277 | -78.44780 | 2508 ft | 162 kts | 147° |
| 2026-05-07 00:12 | 35.56517 | -78.43785 | 2600 ft | 161 kts | 146° |
| 2026-05-07 00:12 | 35.55798 | -78.42676 | 2454 ft | 174 kts | 141° |
| 2026-05-07 00:12 | 35.55136 | -78.41438 | 2454 ft | 173 kts | 134° |
| 2026-05-07 00:13 | 35.54528 | -78.40158 | 2345 ft | 176 kts | 133° |
| 2026-05-07 00:13 | 35.53948 | -78.38838 | 2284 ft | 175 kts | 131° |
| 2026-05-07 00:13 | 35.53326 | -78.37550 | 2332 ft | 170 kts | 132° |
| 2026-05-07 00:13 | 35.52801 | -78.36271 | 2482 ft | 165 kts | 130° |
| 2026-05-07 00:14 | 35.52318 | -78.34990 | 2565 ft | 167 kts | 127° |
| 2026-05-07 00:14 | 35.51838 | -78.33677 | 2563 ft | 171 kts | 127° |
| 2026-05-07 00:14 | 35.51396 | -78.32256 | 2396 ft | 182 kts | 120° |
| 2026-05-07 00:14 | 35.51042 | -78.30738 | 2166 ft | 188 kts | 116° |
| 2026-05-07 00:15 | 35.50744 | -78.29218 | 2118 ft | 181 kts | 112° |
| 2026-05-07 00:15 | 35.50490 | -78.27770 | 2035 ft | 180 kts | 117° |
| 2026-05-07 00:15 | 35.49916 | -78.26433 | 2080 ft | 167 kts | 136° |
| 2026-05-07 00:15 | 35.49104 | -78.25420 | 2033 ft | 162 kts | 155° |
| 2026-05-07 00:16 | 35.48256 | -78.24606 | 2309 ft | 147 kts | 156° |
| 2026-05-07 00:16 | 35.47470 | -78.23845 | 2515 ft | 146 kts | 157° |
| 2026-05-07 00:16 | 35.46664 | -78.23004 | 2515 ft | 159 kts | 153° |
| 2026-05-07 00:16 | 35.45853 | -78.22043 | 2486 ft | 165 kts | 148° |
| 2026-05-07 00:17 | 35.45070 | -78.21004 | 2499 ft | 167 kts | 144° |
| 2026-05-07 00:17 | 35.44326 | -78.19894 | 2459 ft | 170 kts | 142° |
| 2026-05-07 00:17 | 35.43678 | -78.18645 | 2428 ft | 166 kts | 133° |
| 2026-05-07 00:17 | 35.43112 | -78.17507 | 2781 ft | 148 kts | 137° |
| 2026-05-07 00:18 | 35.42515 | -78.16485 | 3117 ft | 144 kts | 140° |
| 2026-05-07 00:18 | 35.41966 | -78.15484 | 3432 ft | 147 kts | 137° |
| 2026-05-07 00:18 | 35.41390 | -78.14363 | 3446 ft | 164 kts | 134° |
| 2026-05-07 00:18 | 35.40747 | -78.13126 | 3297 ft | 178 kts | 136° |
| 2026-05-07 00:19 | 35.39990 | -78.11875 | 3113 ft | 186 kts | 138° |
| 2026-05-07 00:19 | 35.39238 | -78.10579 | 3123 ft | 181 kts | 136° |
| 2026-05-07 00:19 | 35.38602 | -78.09340 | 3484 ft | 166 kts | 133° |
| 2026-05-07 00:19 | 35.38020 | -78.08111 | 3527 ft | 175 kts | 132° |
| 2026-05-07 00:20 | 35.37470 | -78.06734 | 3470 ft | 184 kts | 125° |
| 2026-05-07 00:20 | 35.36882 | -78.05331 | 3398 ft | 183 kts | 131° |
| 2026-05-07 00:20 | 35.36117 | -78.04090 | 3421 ft | 182 kts | 145° |
| 2026-05-07 00:20 | 35.35270 | -78.02958 | 3497 ft | 179 kts | 150° |
| 2026-05-07 00:21 | 35.34381 | -78.01883 | 3510 ft | 179 kts | 152° |
| 2026-05-07 00:21 | 35.33434 | -78.00873 | 3486 ft | 181 kts | 157° |
| 2026-05-07 00:21 | 35.32433 | -77.99943 | 3462 ft | 180 kts | 160° |
| 2026-05-07 00:21 | 35.31440 | -77.99075 | 3531 ft | 176 kts | 160° |
| 2026-05-07 00:22 | 35.30455 | -77.98163 | 3530 ft | 179 kts | 156° |
| 2026-05-07 00:22 | 35.29498 | -77.97186 | 3420 ft | 179 kts | 156° |
| 2026-05-07 00:22 | 35.28547 | -77.96309 | 3463 ft | 168 kts | 161° |
| 2026-05-07 00:22 | 35.27603 | -77.95520 | 3475 ft | 163 kts | 165° |
| 2026-05-07 00:23 | 35.26646 | -77.94779 | 3478 ft | 161 kts | 167° |
| 2026-05-07 00:23 | 35.25691 | -77.94054 | 3503 ft | 162 kts | 161° |
| 2026-05-07 00:23 | 35.24760 | -77.93243 | 3512 ft | 166 kts | 157° |
| 2026-05-07 00:23 | 35.23863 | -77.92381 | 3466 ft | 170 kts | 156° |
| 2026-05-07 00:24 | 35.22950 | -77.91463 | 3491 ft | 171 kts | 153° |
| 2026-05-07 00:24 | 35.22078 | -77.90436 | 3491 ft | 175 kts | 147° |
| 2026-05-07 00:24 | 35.21180 | -77.89463 | 3516 ft | 166 kts | 160° |
| 2026-05-07 00:24 | 35.20114 | -77.88988 | 3519 ft | 163 kts | 179° |
| 2026-05-07 00:25 | 35.19065 | -77.88574 | 3549 ft | 157 kts | 179° |
| 2026-05-07 00:25 | 35.18019 | -77.88172 | 3328 ft | 164 kts | 179° |
| 2026-05-07 00:25 | 35.16908 | -77.87896 | 3349 ft | 160 kts | 187° |
| 2026-05-07 00:25 | 35.15840 | -77.87667 | 3516 ft | 156 kts | 186° |
| 2026-05-07 00:26 | 35.14802 | -77.87551 | 3579 ft | 135 kts | 199° |
| 2026-05-07 00:26 | 35.13751 | -77.87564 | 3547 ft | 148 kts | 193° |
| 2026-05-07 00:26 | 35.12730 | -77.87487 | 3636 ft | 145 kts | 189° |
| 2026-05-07 00:26 | 35.11725 | -77.87263 | 3722 ft | 147 kts | 181° |
| 2026-05-07 00:27 | 35.10707 | -77.86975 | 3520 ft | 156 kts | 181° |
| 2026-05-07 00:27 | 35.09651 | -77.86676 | 3504 ft | 154 kts | 182° |
| 2026-05-07 00:27 | 35.08586 | -77.86402 | 3476 ft | 159 kts | 181° |
| 2026-05-07 00:27 | 35.07491 | -77.86039 | 3478 ft | 161 kts | 177° |
| 2026-05-07 00:28 | 35.06431 | -77.85651 | 3557 ft | 159 kts | 177° |
| 2026-05-07 00:28 | 35.05364 | -77.85261 | 3519 ft | 165 kts | 176° |
| 2026-05-07 00:28 | 35.04233 | -77.84899 | 3452 ft | 168 kts | 179° |
| 2026-05-07 00:28 | 35.03132 | -77.84545 | 3561 ft | 163 kts | 180° |
| 2026-05-07 00:29 | 35.02043 | -77.84198 | 3647 ft | 158 kts | 181° |
| 2026-05-07 00:29 | 35.00951 | -77.83948 | 3448 ft | 161 kts | 186° |
| 2026-05-07 00:30 | 34.97780 | -77.83461 | 3401 ft | 158 kts | 188° |
| 2026-05-07 00:30 | 34.96727 | -77.83294 | 3504 ft | 154 kts | 185° |
| 2026-05-07 00:30 | 34.95660 | -77.83058 | 3503 ft | 156 kts | 183° |
| 2026-05-07 00:30 | 34.94580 | -77.82817 | 3482 ft | 157 kts | 182° |
| 2026-05-07 00:31 | 34.93506 | -77.82559 | 3457 ft | 159 kts | 183° |
| 2026-05-07 00:31 | 34.92431 | -77.82335 | 3513 ft | 157 kts | 185° |
| 2026-05-07 00:31 | 34.91335 | -77.82119 | 3456 ft | 163 kts | 185° |
| 2026-05-07 00:31 | 34.90228 | -77.81864 | 3470 ft | 162 kts | 183° |
| 2026-05-07 00:32 | 34.89105 | -77.81520 | 3260 ft | 172 kts | 178° |
| 2026-05-07 00:32 | 34.88016 | -77.81109 | 3377 ft | 162 kts | 176° |
| 2026-05-07 00:32 | 34.86961 | -77.80715 | 3492 ft | 157 kts | 179° |
| 2026-05-07 00:32 | 34.85890 | -77.80398 | 3490 ft | 162 kts | 182° |
| 2026-05-07 00:33 | 34.84792 | -77.80053 | 3500 ft | 163 kts | 180° |
| 2026-05-07 00:33 | 34.83701 | -77.79718 | 3555 ft | 160 kts | 183° |
| 2026-05-07 00:33 | 34.82609 | -77.79455 | 3537 ft | 163 kts | 182° |
| 2026-05-07 00:33 | 34.81493 | -77.79179 | 3455 ft | 168 kts | 181° |
| 2026-05-07 00:34 | 34.80377 | -77.78808 | 3451 ft | 167 kts | 177° |
| 2026-05-07 00:34 | 34.79281 | -77.78392 | 3461 ft | 168 kts | 177° |
| 2026-05-07 00:34 | 34.78180 | -77.77929 | 3383 ft | 172 kts | 175° |
| 2026-05-07 00:34 | 34.77066 | -77.77423 | 3397 ft | 171 kts | 174° |
| 2026-05-07 00:35 | 34.75977 | -77.76875 | 3453 ft | 168 kts | 172° |
| 2026-05-07 00:35 | 34.74903 | -77.76333 | 3536 ft | 165 kts | 181° |
| 2026-05-07 00:35 | 34.73757 | -77.76111 | 3480 ft | 170 kts | 194° |
| 2026-05-07 00:35 | 34.72592 | -77.76115 | 3536 ft | 165 kts | 198° |
| 2026-05-07 00:36 | 34.71445 | -77.76111 | 3589 ft | 165 kts | 195° |
| 2026-05-07 00:36 | 34.70334 | -77.76034 | 3558 ft | 166 kts | 193° |
| 2026-05-07 00:36 | 34.69159 | -77.76059 | 3443 ft | 166 kts | 198° |
| 2026-05-07 00:36 | 34.68035 | -77.76157 | 3422 ft | 157 kts | 198° |
| 2026-05-07 00:37 | 34.66960 | -77.76178 | 3501 ft | 154 kts | 192° |
| 2026-05-07 00:37 | 34.65900 | -77.76079 | 3562 ft | 155 kts | 189° |
| 2026-05-07 00:37 | 34.64817 | -77.75908 | 3492 ft | 157 kts | 189° |
| 2026-05-07 00:37 | 34.63705 | -77.75766 | 3386 ft | 159 kts | 187° |
| 2026-05-07 00:38 | 34.62604 | -77.75562 | 3222 ft | 164 kts | 184° |
| 2026-05-07 00:38 | 34.61475 | -77.75350 | 3137 ft | 161 kts | 186° |
| 2026-05-07 00:38 | 34.60386 | -77.75182 | 3053 ft | 160 kts | 187° |
| 2026-05-07 00:38 | 34.59265 | -77.75029 | 3015 ft | 157 kts | 188° |
| 2026-05-07 00:39 | 34.58191 | -77.74888 | 2823 ft | 159 kts | 188° |
| 2026-05-07 00:39 | 34.57066 | -77.74757 | 2356 ft | 162 kts | 189° |
| 2026-05-07 00:39 | 34.56014 | -77.74662 | 2274 ft | 139 kts | 191° |
| 2026-05-07 00:39 | 34.55071 | -77.74615 | 2106 ft | 133 kts | 195° |
| 2026-05-07 00:40 | 34.54137 | -77.74628 | 1802 ft | 136 kts | 195° |
| 2026-05-07 00:40 | 34.53218 | -77.74627 | 1630 ft | 125 kts | 194° |
| 2026-05-07 00:40 | 34.52368 | -77.74583 | 1700 ft | 119 kts | 192° |
| 2026-05-07 00:40 | 34.51523 | -77.74506 | 1674 ft | 138 kts | 186° |
| 2026-05-07 00:41 | 34.50525 | -77.74330 | 1794 ft | 150 kts | 185° |
| 2026-05-07 00:41 | 34.49482 | -77.74288 | 1775 ft | 150 kts | 192° |
| 2026-05-07 00:41 | 34.48465 | -77.74391 | 1842 ft | 148 kts | 196° |
| 2026-05-07 00:41 | 34.47449 | -77.74494 | 1913 ft | 144 kts | 196° |
| 2026-05-07 00:42 | 34.46466 | -77.74745 | 1774 ft | 150 kts | 213° |
| 2026-05-07 00:42 | 34.45529 | -77.75278 | 1710 ft | 144 kts | 212° |
| 2026-05-07 00:42 | 34.44659 | -77.75611 | 1995 ft | 125 kts | 208° |
| 2026-05-07 00:42 | 34.43820 | -77.75882 | 2151 ft | 126 kts | 206° |
| 2026-05-07 00:43 | 34.42918 | -77.76089 | 1980 ft | 138 kts | 206° |
| 2026-05-07 00:43 | 34.42009 | -77.76511 | 1781 ft | 143 kts | 218° |
| 2026-05-07 00:43 | 34.41220 | -77.77233 | 1679 ft | 141 kts | 229° |
| 2026-05-07 00:43 | 34.40469 | -77.77966 | 1622 ft | 135 kts | 223° |
| 2026-05-07 00:44 | 34.39739 | -77.78613 | 1694 ft | 127 kts | 223° |
| 2026-05-07 00:44 | 34.39004 | -77.79176 | 1699 ft | 126 kts | 219° |
| 2026-05-07 00:44 | 34.38225 | -77.79704 | 1594 ft | 133 kts | 215° |
| 2026-05-07 00:44 | 34.37451 | -77.80321 | 1376 ft | 143 kts | 235° |
| 2026-05-07 00:45 | 34.36809 | -77.81218 | 1317 ft | 142 kts | 230° |
| 2026-05-07 00:45 | 34.36070 | -77.81990 | 1313 ft | 137 kts | 223° |
| 2026-05-07 00:45 | 34.35427 | -77.82844 | 1208 ft | 143 kts | 248° |
| 2026-05-07 00:45 | 34.35087 | -77.83919 | 1061 ft | 135 kts | 251° |
| 2026-05-07 00:46 | 34.34712 | -77.84921 | 1154 ft | 125 kts | 243° |
| 2026-05-07 00:46 | 34.34278 | -77.85803 | 1218 ft | 114 kts | 240° |
| 2026-05-07 00:46 | 34.33769 | -77.86558 | 1143 ft | 115 kts | 232° |
| 2026-05-07 00:46 | 34.33262 | -77.87281 | 1143 ft | 113 kts | 234° |
| 2026-05-07 00:47 | 34.32663 | -77.88024 | 922 ft | 130 kts | 233° |
| 2026-05-07 00:47 | 34.32073 | -77.88818 | 981 ft | 120 kts | 233° |
| 2026-05-07 00:47 | 34.31522 | -77.89535 | 948 ft | 117 kts | 233° |
| 2026-05-07 00:47 | 34.30977 | -77.90246 | 884 ft | 113 kts | 232° |
| 2026-05-07 00:48 | 34.30452 | -77.90885 | 740 ft | 105 kts | 231° |
| 2026-05-07 00:48 | 34.29864 | -77.91414 | 529 ft | 102 kts | 211° |
| 2026-05-07 00:48 | 34.29275 | -77.91509 | 466 ft | 79 kts | 180° |
| 2026-05-07 00:48 | 34.28825 | -77.91346 | 457 ft | 61 kts | 172° |
| 2026-05-07 00:49 | 34.28418 | -77.91226 | 423 ft | 55 kts | 174° |
| 2026-05-07 00:49 | 34.28089 | -77.91144 | 408 ft | 45 kts | 171° |
| 2026-05-07 00:49 | 34.27817 | -77.91073 | 327 ft | 34 kts | 172° |
| 2026-05-07 00:49 | 34.27623 | -77.91017 | 329 ft | 23 kts | 174° |
| 2026-05-07 00:50 | 34.27438 | -77.90964 | 270 ft | 33 kts | 177° |
| 2026-05-07 00:50 | 34.27224 | -77.90932 | 168 ft | 25 kts | 195° |
| 2026-05-07 00:50 | 34.27176 | -77.90930 | 126 ft | 12 kts | 201° |
| 2026-05-07 00:50 | 34.27139 | -77.90927 | 68 ft | 4 kts | 206° |
| 2026-05-07 00:51 | 34.27133 | -77.90936 | 34 ft | 0 kts | 206° |